Time;durP1;ratioP1;P1;durP2;ratioP2;P2;SDS_P1;SDS_P2;PMS_P1;PMS_P2;Temp;Humidity;BMP_temperature;BMP_pressure;BME280_temperature;BME280_humidity;BME280_pressure;Samples;Min_cycle;Max_cycle;Signal;HPM_P1;HPM_P2
2022/11/27 00:01:36;;;;;;;7.85;4.22;;;;;;;;;;4986042;28;20536;-43
2022/11/27 00:04:01;;;;;;;5.88;3.90;;;;;;;;;;4986976;28;20487;-44
2022/11/27 00:06:28;;;;;;;4.93;3.78;;;;;;;;;;4984279;28;20100;-43
2022/11/27 00:08:58;;;;;;;4.93;3.50;;;;;;;;;;4986685;28;20821;-43
2022/11/27 00:11:26;;;;;;;4.70;3.53;;;;;;;;;;4981602;28;20039;-43
2022/11/27 00:13:52;;;;;;;9.82;4.28;;;;;;;;;;4987367;28;20026;-43
2022/11/27 00:16:19;;;;;;;4.43;3.50;;;;;;;;;;4984955;28;20046;-43
2022/11/27 00:18:44;;;;;;;5.55;3.83;;;;;;;;;;4984775;28;20035;-46
2022/11/27 00:21:13;;;;;;;7.10;3.60;;;;;;;;;;4985262;28;20045;-43
2022/11/27 00:23:39;;;;;;;6.25;3.78;;;;;;;;;;4986119;28;20113;-44
2022/11/27 00:26:05;;;;;;;10.05;4.10;;;;;;;;;;4985817;28;20071;-44
2022/11/27 00:28:31;;;;;;;4.85;3.53;;;;;;;;;;4983592;28;20034;-45
2022/11/27 00:31:22;;;;;;;4.55;3.60;;;;;;;;;;4984900;28;20105;-45
2022/11/27 00:33:47;;;;;;;6.60;4.07;;;;;;;;;;4982737;28;20041;-43
2022/11/27 00:36:14;;;;;;;6.72;3.88;;;;;;;;;;4987571;28;20042;-43
2022/11/27 00:38:40;;;;;;;5.18;3.65;;;;;;;;;;4986162;28;20053;-43
2022/11/27 00:41:17;;;;;;;5.18;3.47;;;;;;;;;;4981198;28;20050;-44
2022/11/27 00:43:42;;;;;;;5.75;3.53;;;;;;;;;;4984467;28;20096;-44
2022/11/27 00:46:08;;;;;;;5.13;3.35;;;;;;;;;;4984331;28;20038;-48
2022/11/27 00:48:33;;;;;;;4.03;3.00;;;;;;;;;;4986234;28;20386;-43
2022/11/27 00:51:01;;;;;;;6.93;3.38;;;;;;;;;;4989895;28;20479;-44
2022/11/27 00:53:27;;;;;;;4.53;3.17;;;;;;;;;;4990279;28;20490;-44
2022/11/27 00:55:54;;;;;;;3.65;3.20;;;;;;;;;;4987622;28;20074;-41
2022/11/27 00:58:19;;;;;;;3.70;3.20;;;;;;;;;;4990664;28;20026;-46
2022/11/27 01:00:44;;;;;;;6.40;3.20;;;;;;;;;;4988050;28;20073;-43
2022/11/27 01:03:10;;;;;;;5.25;3.10;;;;;;;;;;4988905;28;20100;-43
2022/11/27 01:05:36;;;;;;;5.25;3.13;;;;;;;;;;4990327;28;20383;-44
2022/11/27 01:08:02;;;;;;;4.50;3.15;;;;;;;;;;4987537;28;20084;-43
2022/11/27 01:10:27;;;;;;;4.43;3.13;;;;;;;;;;4987933;28;20034;-43
2022/11/27 01:12:53;;;;;;;5.25;3.60;;;;;;;;;;4988159;28;20041;-43
2022/11/27 01:15:18;;;;;;;4.35;3.47;;;;;;;;;;4988896;28;20022;-43
2022/11/27 01:17:43;;;;;;;5.22;3.60;;;;;;;;;;4986858;28;20050;-44
2022/11/27 01:20:09;;;;;;;8.00;3.45;;;;;;;;;;4989647;28;20070;-44
2022/11/27 01:22:35;;;;;;;4.97;3.70;;;;;;;;;;4988521;28;20046;-42
2022/11/27 01:25:00;;;;;;;6.68;3.30;;;;;;;;;;4989797;28;20084;-43
2022/11/27 01:27:25;;;;;;;5.47;3.67;;;;;;;;;;4988007;28;20046;-42
2022/11/27 01:29:51;;;;;;;5.53;3.30;;;;;;;;;;4987451;28;20038;-43
2022/11/27 01:32:16;;;;;;;4.65;3.40;;;;;;;;;;4989490;28;20050;-43
2022/11/27 01:34:41;;;;;;;5.82;3.10;;;;;;;;;;4990409;28;20031;-45
2022/11/27 01:37:07;;;;;;;5.78;3.90;;;;;;;;;;4989159;28;20045;-44
2022/11/27 01:39:32;;;;;;;5.03;3.30;;;;;;;;;;4988401;28;20443;-46
2022/11/27 01:41:58;;;;;;;4.68;3.22;;;;;;;;;;4988481;28;20129;-42
2022/11/27 01:44:23;;;;;;;5.20;3.35;;;;;;;;;;4985061;28;20419;-44
2022/11/27 01:46:59;;;;;;;5.07;2.90;;;;;;;;;;4983126;28;20034;-42
2022/11/27 01:49:33;;;;;;;5.15;3.33;;;;;;;;;;4986494;28;20026;-43
2022/11/27 01:52:06;;;;;;;5.45;3.45;;;;;;;;;;4989668;28;20105;-42
2022/11/27 01:54:42;;;;;;;6.00;3.15;;;;;;;;;;4987273;28;20533;-42
2022/11/27 01:57:14;;;;;;;9.68;3.05;;;;;;;;;;4984959;28;20398;-43
2022/11/27 01:59:40;;;;;;;4.28;2.90;;;;;;;;;;4984379;28;20037;-43
2022/11/27 02:02:06;;;;;;;3.67;2.85;;;;;;;;;;4989099;28;20058;-43
2022/11/27 02:04:31;;;;;;;4.72;2.65;;;;;;;;;;4987144;28;20110;-46
2022/11/27 02:06:58;;;;;;;4.32;3.00;;;;;;;;;;4987711;28;20068;-43
2022/11/27 02:09:25;;;;;;;4.30;2.85;;;;;;;;;;4988682;28;20081;-43
2022/11/27 02:12:07;;;;;;;4.40;2.70;;;;;;;;;;4987092;28;20101;-43
2022/11/27 02:14:48;;;;;;;4.07;3.10;;;;;;;;;;4987431;28;20138;-45
2022/11/27 02:17:18;;;;;;;3.92;2.80;;;;;;;;;;4987807;28;20034;-43
2022/11/27 02:20:20;;;;;;;4.43;3.08;;;;;;;;;;4987937;28;20030;-43
2022/11/27 02:23:17;;;;;;;6.68;3.35;;;;;;;;;;4983514;28;20038;-43
2022/11/27 02:26:16;;;;;;;4.32;2.78;;;;;;;;;;4984825;28;20562;-43
2022/11/27 02:29:03;;;;;;;4.65;3.03;;;;;;;;;;4967799;28;20050;-43
2022/11/27 02:31:53;;;;;;;4.60;3.17;;;;;;;;;;4967485;28;20031;-43
2022/11/27 02:34:26;;;;;;;4.90;3.08;;;;;;;;;;4962780;28;20082;-46
2022/11/27 02:37:09;;;;;;;7.32;3.38;;;;;;;;;;4972788;28;20038;-43
2022/11/27 02:39:43;;;;;;;5.25;3.22;;;;;;;;;;4984813;28;20509;-45
2022/11/27 02:42:17;;;;;;;3.22;2.53;;;;;;;;;;4984010;28;20535;-43
2022/11/27 02:44:58;;;;;;;2.95;2.45;;;;;;;;;;4985838;28;20421;-44
2022/11/27 02:47:26;;;;;;;5.03;2.63;;;;;;;;;;4987794;28;20043;-43
2022/11/27 02:49:55;;;;;;;3.47;2.60;;;;;;;;;;4985131;28;20464;-45
2022/11/27 02:52:24;;;;;;;3.58;2.35;;;;;;;;;;4986901;28;20594;-43
2022/11/27 02:54:53;;;;;;;5.03;2.80;;;;;;;;;;4987290;28;20038;-43
2022/11/27 02:57:21;;;;;;;5.93;2.90;;;;;;;;;;4983346;28;20031;-43
2022/11/27 02:59:49;;;;;;;3.17;2.85;;;;;;;;;;4987414;28;20121;-42
2022/11/27 03:02:19;;;;;;;2.80;2.47;;;;;;;;;;4986035;28;20079;-44
2022/11/27 03:04:52;;;;;;;3.30;2.65;;;;;;;;;;4984213;28;20038;-42
2022/11/27 03:07:58;;;;;;;3.42;2.67;;;;;;;;;;4984813;28;20605;-43
2022/11/27 03:10:35;;;;;;;5.78;3.28;;;;;;;;;;4982564;28;20121;-48
2022/11/27 03:13:02;;;;;;;6.80;3.08;;;;;;;;;;4987201;28;20034;-43
2022/11/27 03:15:38;;;;;;;3.22;2.88;;;;;;;;;;4985062;28;20034;-43
2022/11/27 03:18:29;;;;;;;5.32;2.72;;;;;;;;;;4983788;28;20046;-43
2022/11/27 03:21:06;;;;;;;2.67;2.47;;;;;;;;;;4984609;28;20030;-43
2022/11/27 03:23:31;;;;;;;4.25;3.15;;;;;;;;;;4982311;28;20026;-43
2022/11/27 03:25:57;;;;;;;4.60;2.78;;;;;;;;;;4987889;28;20100;-43
2022/11/27 03:28:23;;;;;;;7.68;3.50;;;;;;;;;;4986085;28;20540;-43
2022/11/27 03:30:48;;;;;;;3.75;3.35;;;;;;;;;;4984708;28;20030;-42
2022/11/27 03:33:13;;;;;;;6.80;3.53;;;;;;;;;;4985634;28;20041;-44
2022/11/27 03:35:39;;;;;;;3.60;2.72;;;;;;;;;;4987858;28;20030;-43
2022/11/27 03:38:04;;;;;;;4.70;2.67;;;;;;;;;;4986715;28;20088;-42
2022/11/27 03:40:42;;;;;;;5.78;3.00;;;;;;;;;;4985097;28;20057;-45
2022/11/27 03:43:16;;;;;;;6.43;3.00;;;;;;;;;;4986326;28;20043;-43
2022/11/27 03:45:58;;;;;;;3.08;2.47;;;;;;;;;;4984557;28;20091;-44
2022/11/27 03:48:54;;;;;;;5.75;3.00;;;;;;;;;;4982668;28;20089;-43
2022/11/27 03:51:41;;;;;;;6.65;2.95;;;;;;;;;;4985276;28;20038;-44
2022/11/27 03:54:41;;;;;;;6.85;2.90;;;;;;;;;;4986891;28;20489;-44
2022/11/27 03:57:18;;;;;;;4.15;2.70;;;;;;;;;;4979754;28;20058;-43
2022/11/27 03:59:47;;;;;;;3.95;2.83;;;;;;;;;;4984399;28;20069;-43
2022/11/27 04:02:14;;;;;;;3.97;2.70;;;;;;;;;;4985784;28;20049;-44
2022/11/27 04:04:40;;;;;;;11.23;3.38;;;;;;;;;;4985425;28;20430;-43
2022/11/27 04:07:05;;;;;;;4.00;3.00;;;;;;;;;;4983615;28;20048;-43
2022/11/27 04:09:31;;;;;;;4.68;3.13;;;;;;;;;;4985683;28;20100;-44
2022/11/27 04:11:56;;;;;;;3.28;2.50;;;;;;;;;;4986012;28;20038;-43
2022/11/27 04:14:21;;;;;;;4.00;2.70;;;;;;;;;;4981934;28;20105;-43
2022/11/27 04:16:47;;;;;;;2.65;2.45;;;;;;;;;;4983503;28;20042;-45
2022/11/27 04:19:12;;;;;;;6.57;2.85;;;;;;;;;;4986567;28;20044;-43
2022/11/27 04:21:37;;;;;;;3.40;2.60;;;;;;;;;;4985245;28;20034;-44
2022/11/27 04:24:03;;;;;;;5.57;2.92;;;;;;;;;;4989309;28;20455;-44
2022/11/27 04:26:28;;;;;;;4.72;2.92;;;;;;;;;;4989865;28;20042;-43
2022/11/27 04:28:53;;;;;;;3.78;2.92;;;;;;;;;;4988927;28;20121;-43
2022/11/27 04:31:19;;;;;;;6.60;2.88;;;;;;;;;;4986838;28;20031;-44
2022/11/27 04:33:44;;;;;;;3.95;2.53;;;;;;;;;;4990036;28;20096;-43
2022/11/27 04:36:09;;;;;;;6.22;2.70;;;;;;;;;;4989667;28;20133;-41
2022/11/27 04:38:35;;;;;;;3.08;2.47;;;;;;;;;;4990300;28;20462;-43
2022/11/27 04:41:00;;;;;;;3.95;2.67;;;;;;;;;;4989370;28;20023;-46
2022/11/27 04:43:25;;;;;;;7.05;2.83;;;;;;;;;;4988517;28;20117;-43
2022/11/27 04:45:51;;;;;;;6.35;2.90;;;;;;;;;;4987150;28;20431;-43
2022/11/27 04:48:16;;;;;;;3.72;2.95;;;;;;;;;;4987139;28;20105;-45
2022/11/27 04:50:42;;;;;;;5.05;3.05;;;;;;;;;;4987861;28;20518;-42
2022/11/27 04:53:07;;;;;;;3.72;3.22;;;;;;;;;;4988456;28;20034;-44
2022/11/27 04:55:34;;;;;;;3.42;2.95;;;;;;;;;;4989452;28;20039;-45
2022/11/27 04:57:59;;;;;;;4.05;2.58;;;;;;;;;;4989214;28;20038;-43
2022/11/27 05:00:25;;;;;;;3.55;2.38;;;;;;;;;;4984282;28;20462;-43
2022/11/27 05:02:50;;;;;;;5.35;2.70;;;;;;;;;;4989559;28;20152;-43
2022/11/27 05:05:16;;;;;;;4.03;2.90;;;;;;;;;;4990372;28;20027;-42
2022/11/27 05:07:42;;;;;;;3.50;2.92;;;;;;;;;;4989837;28;20097;-42
2022/11/27 05:10:07;;;;;;;7.03;2.72;;;;;;;;;;4988821;28;20667;-43
2022/11/27 05:12:33;;;;;;;6.43;3.05;;;;;;;;;;4986032;28;20106;-43
2022/11/27 05:14:58;;;;;;;5.70;2.90;;;;;;;;;;4987323;28;20041;-42
2022/11/27 05:17:24;;;;;;;3.63;2.50;;;;;;;;;;4986909;28;20121;-43
2022/11/27 05:19:49;;;;;;;7.57;2.75;;;;;;;;;;4989017;28;20034;-42
2022/11/27 05:22:14;;;;;;;3.95;2.30;;;;;;;;;;4989812;28;20069;-41
2022/11/27 05:24:40;;;;;;;5.07;2.20;;;;;;;;;;4983544;28;20602;-42
2022/11/27 05:27:05;;;;;;;4.57;2.42;;;;;;;;;;4984051;28;20080;-43
2022/11/27 05:29:30;;;;;;;3.08;2.10;;;;;;;;;;4987648;28;20026;-43
2022/11/27 05:31:57;;;;;;;4.60;2.55;;;;;;;;;;4986337;28;20043;-42
2022/11/27 05:34:22;;;;;;;3.03;2.40;;;;;;;;;;4987029;28;20022;-42
2022/11/27 05:36:47;;;;;;;4.43;2.90;;;;;;;;;;4988706;28;20380;-42
2022/11/27 05:39:13;;;;;;;4.47;2.35;;;;;;;;;;4988623;28;20018;-42
2022/11/27 05:41:40;;;;;;;5.60;2.55;;;;;;;;;;4988341;28;20030;-42
2022/11/27 05:44:06;;;;;;;2.95;2.17;;;;;;;;;;4987949;28;20038;-43
2022/11/27 05:46:32;;;;;;;2.08;1.90;;;;;;;;;;4985234;28;20396;-43
2022/11/27 05:48:57;;;;;;;4.88;2.67;;;;;;;;;;4984683;28;20033;-42
2022/11/27 05:51:23;;;;;;;3.08;2.15;;;;;;;;;;4985990;28;20034;-43
2022/11/27 05:53:48;;;;;;;3.70;2.30;;;;;;;;;;4989645;28;20037;-43
2022/11/27 05:56:16;;;;;;;5.60;2.72;;;;;;;;;;4987150;28;20039;-42
2022/11/27 05:58:43;;;;;;;3.92;2.38;;;;;;;;;;4989999;28;20030;-43
2022/11/27 06:01:10;;;;;;;4.07;2.55;;;;;;;;;;4988418;28;20038;-44
2022/11/27 06:03:37;;;;;;;3.03;2.60;;;;;;;;;;4986792;28;20137;-43
2022/11/27 06:06:21;;;;;;;3.05;2.33;;;;;;;;;;4987615;28;20114;-42
2022/11/27 06:08:47;;;;;;;2.90;2.40;;;;;;;;;;4986121;28;20027;-43
2022/11/27 06:11:15;;;;;;;4.43;2.70;;;;;;;;;;4987400;28;20035;-42
2022/11/27 06:13:41;;;;;;;6.57;2.72;;;;;;;;;;4988887;28;20367;-42
2022/11/27 06:16:10;;;;;;;3.20;2.45;;;;;;;;;;4988157;28;20190;-43
2022/11/27 06:18:36;;;;;;;3.13;2.83;;;;;;;;;;4990354;28;20088;-43
2022/11/27 06:21:06;;;;;;;7.55;2.80;;;;;;;;;;4986860;28;20376;-43
2022/11/27 06:23:32;;;;;;;3.30;2.60;;;;;;;;;;4984693;28;20372;-43
2022/11/27 06:25:57;;;;;;;4.22;3.63;;;;;;;;;;4986308;28;20037;-43
2022/11/27 06:28:23;;;;;;;5.00;3.20;;;;;;;;;;4987161;28;20034;-43
2022/11/27 06:30:48;;;;;;;2.90;2.35;;;;;;;;;;4987697;28;20041;-43
2022/11/27 06:33:13;;;;;;;5.47;2.88;;;;;;;;;;4987486;28;20105;-43
2022/11/27 06:35:39;;;;;;;3.90;2.47;;;;;;;;;;4987858;28;20034;-42
2022/11/27 06:38:04;;;;;;;7.32;3.00;;;;;;;;;;4986120;28;20076;-44
2022/11/27 06:40:30;;;;;;;4.18;2.70;;;;;;;;;;4980445;28;20031;-43
2022/11/27 06:42:55;;;;;;;5.13;2.95;;;;;;;;;;4984835;28;20046;-43
2022/11/27 06:45:21;;;;;;;2.67;2.28;;;;;;;;;;4986948;28;20041;-43
2022/11/27 06:47:46;;;;;;;5.68;2.22;;;;;;;;;;4986524;28;20061;-43
2022/11/27 06:50:11;;;;;;;2.63;2.03;;;;;;;;;;4986031;28;20034;-43
2022/11/27 06:52:37;;;;;;;2.55;2.30;;;;;;;;;;4986718;28;20045;-42
2022/11/27 06:55:02;;;;;;;6.03;2.97;;;;;;;;;;4988218;28;20398;-44
2022/11/27 06:57:27;;;;;;;2.30;2.10;;;;;;;;;;4984642;28;20069;-43
2022/11/27 06:59:53;;;;;;;4.07;2.75;;;;;;;;;;4983272;28;20019;-42
2022/11/27 07:02:18;;;;;;;7.65;3.60;;;;;;;;;;4985799;28;20042;-45
2022/11/27 07:04:44;;;;;;;3.30;2.20;;;;;;;;;;4989085;28;20030;-42
2022/11/27 07:07:09;;;;;;;5.18;2.63;;;;;;;;;;4986134;28;20502;-43
2022/11/27 07:09:34;;;;;;;4.05;2.47;;;;;;;;;;4985682;28;20554;-43
2022/11/27 07:12:00;;;;;;;4.85;2.08;;;;;;;;;;4987869;28;20042;-43
2022/11/27 07:14:25;;;;;;;3.22;1.73;;;;;;;;;;4982652;28;20383;-43
2022/11/27 07:16:50;;;;;;;5.38;2.50;;;;;;;;;;4987425;28;20050;-43
2022/11/27 07:19:16;;;;;;;3.70;2.38;;;;;;;;;;4986753;28;20028;-43
2022/11/27 07:21:41;;;;;;;3.20;2.78;;;;;;;;;;4981843;28;20081;-43
2022/11/27 07:24:07;;;;;;;4.32;2.30;;;;;;;;;;4985249;28;20041;-43
2022/11/27 07:26:32;;;;;;;2.60;2.33;;;;;;;;;;4985154;28;20049;-44
2022/11/27 07:28:57;;;;;;;7.63;2.70;;;;;;;;;;4987068;28;20035;-42
2022/11/27 07:31:26;;;;;;;3.42;2.28;;;;;;;;;;4984360;28;20043;-43
2022/11/27 07:33:52;;;;;;;6.82;2.45;;;;;;;;;;4981139;28;20038;-42
2022/11/27 07:36:20;;;;;;;2.85;2.20;;;;;;;;;;4983024;28;20050;-43
2022/11/27 07:38:47;;;;;;;2.60;2.35;;;;;;;;;;4983673;28;20161;-42
2022/11/27 07:41:13;;;;;;;2.22;2.03;;;;;;;;;;4981444;28;20039;-44
2022/11/27 07:43:39;;;;;;;4.30;2.28;;;;;;;;;;4982549;28;20026;-41
2022/11/27 07:47:58;;;;;;;4.95;3.15;;;;;;;;;;5041808;27;20988;-41
2022/11/27 07:50:24;;;;;;;3.30;2.63;;;;;;;;;;5042714;28;20044;-42
2022/11/27 07:52:49;;;;;;;3.03;2.42;;;;;;;;;;5036860;28;20128;-42
2022/11/27 07:55:14;;;;;;;6.13;3.10;;;;;;;;;;5032003;28;20049;-43
2022/11/27 07:57:41;;;;;;;3.83;3.05;;;;;;;;;;5036119;28;20038;-41
2022/11/27 08:00:07;;;;;;;5.88;4.85;;;;;;;;;;5026089;28;20029;-41
2022/11/27 08:02:32;;;;;;;7.60;5.85;;;;;;;;;;5036326;28;20045;-42
2022/11/27 08:04:58;;;;;;;8.90;5.78;;;;;;;;;;5037385;28;20035;-42
2022/11/27 08:07:29;;;;;;;7.93;4.70;;;;;;;;;;5032877;28;20070;-44
2022/11/27 08:09:57;;;;;;;9.83;6.77;;;;;;;;;;5034440;28;20025;-44
2022/11/27 08:12:23;;;;;;;17.75;10.85;;;;;;;;;;5028904;28;20033;-43
2022/11/27 08:14:48;;;;;;;17.50;8.32;;;;;;;;;;5013320;28;20045;-42
2022/11/27 08:17:13;;;;;;;14.10;7.85;;;;;;;;;;5018337;28;20045;-43
2022/11/27 08:19:39;;;;;;;17.65;7.75;;;;;;;;;;5035178;28;20040;-41
2022/11/27 08:22:05;;;;;;;10.65;7.47;;;;;;;;;;5033995;28;20040;-42
2022/11/27 08:24:31;;;;;;;16.65;8.20;;;;;;;;;;5032379;28;20397;-44
2022/11/27 08:26:57;;;;;;;16.15;8.13;;;;;;;;;;5040381;28;20032;-41
2022/11/27 08:29:22;;;;;;;12.25;6.85;;;;;;;;;;5037308;28;20786;-42
2022/11/27 08:31:47;;;;;;;10.57;6.07;;;;;;;;;;5036383;28;20076;-41
2022/11/27 08:34:13;;;;;;;13.20;6.90;;;;;;;;;;5034021;28;20474;-42
2022/11/27 08:36:38;;;;;;;7.35;4.95;;;;;;;;;;5035917;28;20026;-42
2022/11/27 08:39:03;;;;;;;5.70;4.30;;;;;;;;;;5033816;28;20026;-42
2022/11/27 08:41:29;;;;;;;6.03;3.90;;;;;;;;;;5035667;28;20030;-42
2022/11/27 08:43:54;;;;;;;6.20;3.22;;;;;;;;;;5037759;28;20164;-42
2022/11/27 08:46:19;;;;;;;5.55;3.17;;;;;;;;;;5037416;28;20049;-42
2022/11/27 08:48:45;;;;;;;5.88;2.92;;;;;;;;;;5035511;28;20044;-43
2022/11/27 08:51:12;;;;;;;3.95;2.20;;;;;;;;;;5037119;28;20029;-43
2022/11/27 08:53:38;;;;;;;4.15;2.40;;;;;;;;;;5033843;28;22365;-42
2022/11/27 08:56:11;;;;;;;2.45;2.20;;;;;;;;;;5041004;28;20112;-41
2022/11/27 08:58:39;;;;;;;3.60;1.88;;;;;;;;;;5025817;28;20034;-44
2022/11/27 09:01:14;;;;;;;3.65;2.17;;;;;;;;;;5021575;28;20477;-42
2022/11/27 09:03:40;;;;;;;6.18;2.05;;;;;;;;;;5002625;28;20038;-42
2022/11/27 09:06:07;;;;;;;4.18;2.20;;;;;;;;;;5001403;28;20030;-42
2022/11/27 09:08:32;;;;;;;5.95;2.35;;;;;;;;;;5015531;28;20037;-41
2022/11/27 09:11:00;;;;;;;3.03;2.50;;;;;;;;;;5018044;28;20444;-43
2022/11/27 09:13:25;;;;;;;4.85;2.67;;;;;;;;;;5019499;28;20050;-42
2022/11/27 09:15:51;;;;;;;6.13;2.75;;;;;;;;;;5025659;28;20393;-42
2022/11/27 09:18:16;;;;;;;3.75;2.28;;;;;;;;;;5021907;28;20387;-46
2022/11/27 09:20:42;;;;;;;3.80;3.08;;;;;;;;;;5020164;28;20022;-43
2022/11/27 09:23:07;;;;;;;5.45;2.63;;;;;;;;;;5022769;28;20034;-43
2022/11/27 09:25:32;;;;;;;4.15;2.85;;;;;;;;;;5022731;28;20056;-42
2022/11/27 09:27:58;;;;;;;11.48;3.58;;;;;;;;;;5012759;28;20034;-43
2022/11/27 09:30:23;;;;;;;7.57;4.50;;;;;;;;;;5000176;28;20083;-42
2022/11/27 09:32:48;;;;;;;6.10;4.35;;;;;;;;;;4995086;28;20045;-47
2022/11/27 09:35:14;;;;;;;3.25;2.88;;;;;;;;;;5003154;28;20069;-43
2022/11/27 09:37:39;;;;;;;5.80;2.85;;;;;;;;;;5007156;28;20037;-43
2022/11/27 09:40:05;;;;;;;5.82;3.20;;;;;;;;;;5023214;28;20032;-44
2022/11/27 09:43:01;;;;;;;3.40;2.70;;;;;;;;;;5017895;28;20493;-46
2022/11/27 09:45:26;;;;;;;4.07;2.85;;;;;;;;;;5020098;28;20056;-43
2022/11/27 09:48:00;;;;;;;3.83;2.85;;;;;;;;;;5021623;28;20069;-43
2022/11/27 09:50:29;;;;;;;3.58;2.90;;;;;;;;;;5019860;28;20042;-43
2022/11/27 09:53:02;;;;;;;3.92;2.85;;;;;;;;;;5024723;28;20046;-42
2022/11/27 09:55:36;;;;;;;4.35;2.75;;;;;;;;;;5022266;28;20025;-43
2022/11/27 09:58:14;;;;;;;3.92;2.63;;;;;;;;;;5021705;28;20049;-42
2022/11/27 10:00:39;;;;;;;3.22;2.40;;;;;;;;;;5017439;28;20030;-42
2022/11/27 10:03:11;;;;;;;3.55;1.77;;;;;;;;;;5021459;28;20658;-42
2022/11/27 10:05:45;;;;;;;;;;;;;;;;;;5022222;28;20030;-42
2022/11/27 10:08:19;;;;;;;4.75;3.03;;;;;;;;;;5022009;28;19933;-43
2022/11/27 10:11:11;;;;;;;6.40;3.22;;;;;;;;;;5018983;28;20033;-43
2022/11/27 10:14:07;;;;;;;5.72;2.17;;;;;;;;;;5022370;28;20040;-44
2022/11/27 10:16:41;;;;;;;3.45;2.10;;;;;;;;;;5020904;28;20390;-43
2022/11/27 10:19:32;;;;;;;5.53;1.98;;;;;;;;;;5024648;28;20545;-43
2022/11/27 10:22:10;;;;;;;3.15;1.95;;;;;;;;;;5021446;28;20401;-43
2022/11/27 10:24:51;;;;;;;6.88;2.67;;;;;;;;;;5020329;28;20116;-42
2022/11/27 10:27:41;;;;;;;2.92;2.22;;;;;;;;;;5013930;28;20213;-43
2022/11/27 10:30:15;;;;;;;5.00;2.63;;;;;;;;;;4989445;28;20049;-43
2022/11/27 10:32:42;;;;;;;5.30;3.25;;;;;;;;;;5007387;28;20034;-43
2022/11/27 10:35:19;;;;;;;5.32;2.47;;;;;;;;;;5022970;28;20113;-43
2022/11/27 10:37:49;;;;;;;2.75;2.10;;;;;;;;;;5015435;28;20095;-42
2022/11/27 10:40:18;;;;;;;4.18;2.15;;;;;;;;;;5020337;28;20061;-43
2022/11/27 10:42:53;;;;;;;4.47;2.47;;;;;;;;;;5016317;28;20545;-46
2022/11/27 10:46:03;;;;;;;10.00;3.85;;;;;;;;;;5021001;28;20029;-43
2022/11/27 10:48:29;;;;;;;7.28;2.90;;;;;;;;;;4978267;28;20498;-43
2022/11/27 10:50:56;;;;;;;5.65;2.65;;;;;;;;;;4977012;28;20085;-43
2022/11/27 10:53:42;;;;;;;5.25;3.00;;;;;;;;;;4982422;28;20042;-44
2022/11/27 10:56:35;;;;;;;10.40;5.70;;;;;;;;;;4981260;28;20105;-43
2022/11/27 10:59:05;;;;;;;11.38;3.80;;;;;;;;;;4973800;28;20566;-44
2022/11/27 11:01:46;;;;;;;8.20;3.08;;;;;;;;;;4976387;28;20181;-42
2022/11/27 11:04:15;;;;;;;6.47;3.78;;;;;;;;;;4975702;28;20133;-43
2022/11/27 11:06:45;;;;;;;6.90;3.10;;;;;;;;;;4974414;28;20133;-43
2022/11/27 11:09:33;;;;;;;4.15;2.53;;;;;;;;;;4976796;28;20046;-44
2022/11/27 11:12:15;;;;;;;4.90;2.80;;;;;;;;;;4974993;28;20129;-43
2022/11/27 11:14:51;;;;;;;7.32;2.65;;;;;;;;;;4980034;28;20521;-42
2022/11/27 11:17:17;;;;;;;12.27;2.63;;;;;;;;;;4979438;28;20070;-43
2022/11/27 11:19:44;;;;;;;5.72;2.60;;;;;;;;;;4980154;28;20065;-45
2022/11/27 11:22:13;;;;;;;7.78;4.00;;;;;;;;;;4981840;28;20460;-45
2022/11/27 11:24:41;;;;;;;6.57;2.67;;;;;;;;;;4988690;28;20549;-44
2022/11/27 11:27:14;;;;;;;12.07;3.03;;;;;;;;;;5026083;28;20041;-43
2022/11/27 11:29:50;;;;;;;6.70;3.10;;;;;;;;;;5018659;28;20350;-43
2022/11/27 11:32:31;;;;;;;4.45;2.88;;;;;;;;;;5019562;28;20049;-44
2022/11/27 11:34:58;;;;;;;6.97;2.78;;;;;;;;;;5016635;28;20115;-43
2022/11/27 11:37:27;;;;;;;7.70;2.47;;;;;;;;;;5022633;28;20041;-44
2022/11/27 11:39:56;;;;;;;10.73;3.08;;;;;;;;;;5018895;28;20402;-44
2022/11/27 11:42:27;;;;;;;6.03;2.28;;;;;;;;;;5021023;28;20509;-43
2022/11/27 11:45:17;;;;;;;5.65;2.30;;;;;;;;;;5023537;28;20052;-44
2022/11/27 11:47:51;;;;;;;5.38;1.90;;;;;;;;;;5016522;28;20038;-43
2022/11/27 11:50:49;;;;;;;9.05;3.47;;;;;;;;;;5015988;28;20025;-45
2022/11/27 11:53:31;;;;;;;8.45;3.58;;;;;;;;;;5019016;28;20048;-43
2022/11/27 11:56:21;;;;;;;2.55;1.90;;;;;;;;;;5021200;28;20485;-43
2022/11/27 11:58:53;;;;;;;8.05;1.92;;;;;;;;;;5023745;28;20052;-44
2022/11/27 12:01:40;;;;;;;7.10;2.80;;;;;;;;;;5023355;28;20036;-43
2022/11/27 12:04:24;;;;;;;7.65;3.97;;;;;;;;;;5016836;28;20051;-43
2022/11/27 12:07:04;;;;;;;6.88;2.65;;;;;;;;;;5017849;28;20355;-43
2022/11/27 12:09:35;;;;;;;7.10;2.90;;;;;;;;;;5019029;28;20060;-43
2022/11/27 12:12:24;;;;;;;3.95;2.70;;;;;;;;;;5025184;28;20029;-44
2022/11/27 12:15:07;;;;;;;6.38;2.47;;;;;;;;;;5022152;28;20040;-43
2022/11/27 12:17:44;;;;;;;8.30;2.15;;;;;;;;;;5017251;28;20030;-43
2022/11/27 12:20:14;;;;;;;3.38;2.65;;;;;;;;;;4999772;28;20045;-44
2022/11/27 12:23:04;;;;;;;4.78;3.10;;;;;;;;;;4996879;28;20030;-43
2022/11/27 12:25:36;;;;;;;3.67;3.05;;;;;;;;;;5000197;28;20141;-47
2022/11/27 12:28:17;;;;;;;6.07;2.20;;;;;;;;;;5010050;28;20160;-43
2022/11/27 12:31:04;;;;;;;4.73;2.93;;;;;;;;;;5020506;28;20417;-43
2022/11/27 12:33:51;;;;;;;5.68;2.70;;;;;;;;;;5019576;28;20046;-43
2022/11/27 12:36:29;;;;;;;4.40;2.85;;;;;;;;;;5023450;28;20037;-44
2022/11/27 12:39:07;;;;;;;5.28;2.42;;;;;;;;;;5021842;28;20180;-43
2022/11/27 12:41:39;;;;;;;3.97;1.95;;;;;;;;;;5022848;28;20035;-43
2022/11/27 12:44:16;;;;;;;6.35;2.00;;;;;;;;;;5023346;28;20029;-43
2022/11/27 12:46:49;;;;;;;2.10;1.45;;;;;;;;;;5023151;28;20096;-43
2022/11/27 12:49:24;;;;;;;3.83;3.13;;;;;;;;;;5021015;28;20056;-43
2022/11/27 12:52:00;;;;;;;3.35;1.85;;;;;;;;;;5023249;28;20065;-43
2022/11/27 12:54:35;;;;;;;3.50;1.65;;;;;;;;;;5000111;28;20030;-43
2022/11/27 12:57:06;;;;;;;4.88;1.70;;;;;;;;;;5005126;28;20084;-44
2022/11/27 12:59:37;;;;;;;3.95;1.83;;;;;;;;;;5023718;28;20088;-44
2022/11/27 13:02:27;;;;;;;2.38;1.80;;;;;;;;;;5022716;28;20045;-43
2022/11/27 13:04:58;;;;;;;7.30;1.60;;;;;;;;;;5007299;28;20069;-44
2022/11/27 13:07:37;;;;;;;3.05;1.80;;;;;;;;;;5003930;28;20038;-44
2022/11/27 13:10:11;;;;;;;2.92;1.33;;;;;;;;;;5007368;28;20127;-44
2022/11/27 13:12:43;;;;;;;2.08;1.60;;;;;;;;;;5004277;28;20500;-43
2022/11/27 13:15:26;;;;;;;3.45;1.60;;;;;;;;;;5015982;28;20452;-44
2022/11/27 13:18:00;;;;;;;2.72;1.60;;;;;;;;;;5001625;28;20099;-48
2022/11/27 13:20:33;;;;;;;4.57;1.70;;;;;;;;;;5022506;28;20025;-47
2022/11/27 13:22:58;;;;;;;5.53;1.65;;;;;;;;;;5026516;28;20052;-50
2022/11/27 13:25:25;;;;;;;3.50;2.00;;;;;;;;;;5022907;28;20029;-43
2022/11/27 13:27:52;;;;;;;5.00;2.45;;;;;;;;;;5020793;28;20497;-46
2022/11/27 13:30:23;;;;;;;1.88;1.40;;;;;;;;;;5025088;28;20036;-46
2022/11/27 13:33:00;;;;;;;5.53;1.67;;;;;;;;;;5014584;28;20164;-44
2022/11/27 13:35:44;;;;;;;7.03;1.77;;;;;;;;;;5008499;28;20033;-46
2022/11/27 13:38:20;;;;;;;3.85;1.73;;;;;;;;;;5018798;28;20076;-45
2022/11/27 13:40:51;;;;;;;2.33;1.50;;;;;;;;;;5025733;28;20064;-44
2022/11/27 13:43:31;;;;;;;4.13;1.30;;;;;;;;;;5026087;28;20359;-46
2022/11/27 13:46:06;;;;;;;3.65;1.50;;;;;;;;;;5023683;28;20038;-44
2022/11/27 13:48:35;;;;;;;3.80;1.70;;;;;;;;;;5026863;28;20038;-44
2022/11/27 13:51:02;;;;;;;3.85;2.15;;;;;;;;;;5021669;28;21366;-43
2022/11/27 13:53:36;;;;;;;5.00;1.80;;;;;;;;;;5010052;28;20038;-50
2022/11/27 13:56:03;;;;;;;5.45;1.60;;;;;;;;;;5005460;28;20049;-43
2022/11/27 13:58:34;;;;;;;3.40;2.10;;;;;;;;;;5022265;28;20033;-43
2022/11/27 14:01:21;;;;;;;3.67;1.37;;;;;;;;;;5024097;28;20087;-46
2022/11/27 14:03:48;;;;;;;3.45;1.98;;;;;;;;;;5023442;28;20538;-44
2022/11/27 14:06:26;;;;;;;7.05;2.42;;;;;;;;;;5026559;28;20484;-46
2022/11/27 14:08:56;;;;;;;4.07;2.70;;;;;;;;;;5024037;28;20037;-44
2022/11/27 14:11:35;;;;;;;3.92;2.90;;;;;;;;;;5026761;28;20446;-46
2022/11/27 14:14:10;;;;;;;3.70;2.22;;;;;;;;;;5022056;28;20453;-44
2022/11/27 14:16:38;;;;;;;4.90;1.65;;;;;;;;;;5021890;28;20025;-44
2022/11/27 14:19:21;;;;;;;5.50;2.38;;;;;;;;;;5023793;28;20132;-46
2022/11/27 14:21:48;;;;;;;5.40;2.50;;;;;;;;;;5024420;28;20039;-46
2022/11/27 14:24:25;;;;;;;5.10;2.38;;;;;;;;;;5025491;28;20156;-43
2022/11/27 14:26:55;;;;;;;3.40;2.05;;;;;;;;;;5024731;28;20091;-44
2022/11/27 14:29:21;;;;;;;5.93;1.85;;;;;;;;;;5026233;28;20405;-44
2022/11/27 14:32:01;;;;;;;3.78;1.55;;;;;;;;;;5025450;28;20156;-42
2022/11/27 14:34:29;;;;;;;1.83;1.42;;;;;;;;;;5020211;28;20083;-44
2022/11/27 14:36:55;;;;;;;2.33;1.67;;;;;;;;;;5026100;28;20033;-43
2022/11/27 14:39:23;;;;;;;3.80;1.67;;;;;;;;;;5025514;28;20095;-45
2022/11/27 14:41:59;;;;;;;4.38;1.40;;;;;;;;;;5026018;28;20038;-45
2022/11/27 14:44:25;;;;;;;3.50;1.85;;;;;;;;;;5025548;28;20022;-43
2022/11/27 14:46:51;;;;;;;3.33;1.67;;;;;;;;;;5022893;28;20049;-45
2022/11/27 14:49:19;;;;;;;6.13;2.17;;;;;;;;;;5022072;28;20030;-43
2022/11/27 14:51:45;;;;;;;5.50;1.90;;;;;;;;;;5025010;28;20028;-44
2022/11/27 14:54:15;;;;;;;4.22;1.70;;;;;;;;;;5027265;28;20497;-43
2022/11/27 14:56:43;;;;;;;3.40;1.75;;;;;;;;;;5025516;28;20094;-43
2022/11/27 14:59:17;;;;;;;2.97;1.70;;;;;;;;;;5024278;28;20029;-43
2022/11/27 15:01:45;;;;;;;4.18;2.22;;;;;;;;;;5024329;28;20030;-47
2022/11/27 15:04:27;;;;;;;2.80;2.17;;;;;;;;;;5026883;28;21519;-42
2022/11/27 15:06:54;;;;;;;4.40;1.92;;;;;;;;;;5023931;28;20037;-44